Tarawa, North Carolina
Current Conditions -  °F | °C
As of 2:56 AM on Tuesday 27 Jan 2015 (Local Time) from KNCA Reporting Station
Overcast Overcast  
Wind Chill: 38°   Ceiling: 1800
Heat Index: 44°   Visibility: 10mi
Dew Point: 38°   Wind: 13mph
Humidity: 79%   Direction: 340°NNW
Pressure: 29.66"   Gusts: 22mph
Location:  34.7353°N, 77.3964°W
Report Text: KNCA 270756Z AUTO 34011G19KT 10SM OVC018 07/03 A2966 RMK AO2 SLP045 T00670033
Loading
Personal Weather Stations






























Interactive Weather Map New forecast layout! Learn more

10-Day Weather Forecast

Advertisements
Track Severe Weather on mobile